Главная страница
METAR-TAF:

METAR-TAF

Аэропорты :

Каир, Египет

широта: 30-08N, долгота: 031-24E, высота над уровнем моря: 64 м

Текущие метеонаблюдения

Эта сводка был подготовлена 13 минут назад, в 00:00 UTC
Ветер 8 Узел от южный-юго-западный
Температура 13°C
Влажность 77%
Давление 1018 hPa
Видимость 10 км и более
Нет облачности ниже 1500 м, и нет кучево-дождевой облачности

METAR: HECA 180000Z 20008KT CAVOK 13/09 Q1018 NOSIG

Время: 02:13 (00:13 UTC)

Прогноз

Эта сводка был подготовлена 1 час и 13 минут назад, в 23:00 UTC
Прогноз действительный с 18-го 00 UTC до 19-го 06 UTC
Ветер 12 Узел от западный-юго-западный
Видимость 10 км и более
Отдельные облака на высоте 2500 фута
временами
С 18-го 03 UTC до 18-го 10 UTC
Видимость: 4000 м
Рассеянная облачность на высоте 2000 фута
небольшой дождь

TAF: HECA 172300Z 1800/1906 24012KT 9999 SCT025 TEMPO 1803/1810 4000 -RA BKN020

Метеонаблюдения и прогнозы для более 4000 аэропортов (сводки METAR и TAF).

Имеющиеся станции представлены на карте желтыми и красными точками.

Чтобы увидеть название станции, наведите на нее мышь.

Затем щелкните, чтобы увидеть метеонаблюдения и метеопрогнозы.

Управление картой: чтобы увеличить масштаб, щелкните зеленые кнопки с черным крестиком; чтобы уменьшить масштаб, щелкните зеленую кнопку с тире; для просмотра соседних карт щелкайте зеленые стрелки.


METAR-TAF: